Date,TemperatureHighF,TemperatureAvgF,TemperatureLowF,DewpointHighF,DewpointAvgF,DewpointLowF,HumidityHigh,HumidityAvg,HumidityLow,PressureMaxIn,PressureMinIn,WindSpeedMaxMPH,WindSpeedAvgMPH,GustSpeedMaxMPH,PrecipitationSumIn
2013-1-1,71,66,53,62,52,40,78,61,35,31.01,29.83,11,3,11,0.00
2013-1-2,63,52,44,56,37,27,79,58,39,30.06,29.85,10,2,10,0.00
2013-1-3,48,41,33,41,27,14,77,58,39,30.24,30.03,9,1,9,0.28
2013-1-4,59,38,30,20,13,4,48,37,15,30.30,30.18,13,1,13,0.00
2013-1-5,54,41,33,21,16,8,50,38,17,30.24,30.09,6,0,6,0.00
2013-1-6,51,47,42,30,21,15,55,37,26,30.15,30.06,8,1,8,0.00
2013-1-7,66,48,35,35,18,6,63,34,14,30.18,30.06,10,1,10,0.00
2013-1-8,65,54,45,41,30,14,51,39,27,30.15,30.03,8,2,8,0.00
2013-1-9,68,64,58,62,53,38,81,68,44,30.15,30.06,10,2,10,0.00
2013-1-10,73,68,64,68,61,56,83,80,72,30.15,29.91,14,2,14,0.35
2013-1-11,79,71,65,72,58,43,81,66,30,30.03,29.94,8,1,8,0.00
2013-1-12,78,72,69,71,60,45,81,68,33,30.00,29.88,10,1,10,0.00
2013-1-13,76,74,72,70,64,56,80,72,52,29.91,29.83,8,2,8,0.00
2013-1-14,81,74,60,75,62,44,82,68,30,29.97,29.88,10,2,10,0.00
2013-1-15,79,71,60,71,60,52,79,69,48,29.94,29.83,11,2,11,0.20
2013-1-16,76,63,51,69,57,46,82,81,79,29.91,29.80,8,1,8,0.79
2013-1-17,53,46,40,46,27,14,82,51,24,30.21,29.91,17,5,17,0.00
2013-1-18,67,47,36,31,18,4,61,34,13,30.39,30.21,11,2,13,0.00
2013-1-19,69,51,35,33,21,14,56,35,15,30.27,30.12,7,1,7,0.00
2013-1-20,73,51,37,52,25,17,71,41,12,30.15,30.00,6,1,6,0.00
2013-1-21,71,52,38,51,24,9,73,40,13,30.09,30.00,6,0,230,0.00
2013-1-22,64,48,34,19,14,4,44,28,14,30.24,30.06,8,1,9,0.00
2013-1-23,66,46,29,42,20,13,65,39,16,30.30,30.18,10,1,10,0.00
2013-1-24,70,52,36,53,30,24,75,46,20,30.24,30.12,11,1,11,0.00
2013-1-25,67,51,42,36,32,25,64,49,21,30.15,30.06,10,0,10,0.00
2013-1-26,74,59,47,62,37,28,79,49,19,30.15,30.06,8,1,8,0.00
2013-1-27,71,57,46,56,37,30,78,51,24,30.21,30.12,6,1,6,0.00
2013-1-28,71,60,48,61,47,37,79,63,33,30.18,30.06,8,1,8,0.00
2013-1-29,76,70,65,65,59,46,80,69,35,30.06,29.77,10,3,10,0.00
2013-1-30,74,63,43,66,50,12,82,64,27,29.97,29.53,20,6,20,0.39
2013-1-31,64,47,35,19,12,2,40,26,14,30.18,29.97,10,3,10,0.00
2013-2-1,66,48,33,27,14,-2,48,27,14,30.27,30.18,10,2,10,0.00
2013-2-2,64,44,25,26,14,2,51,31,14,30.24,30.06,9,1,9,0.00
2013-2-3,70,52,39,50,23,9,73,39,13,30.15,30.00,12,1,12,0.00
2013-2-4,70,54,35,46,29,20,66,42,20,30.00,29.85,5,0,5,0.00
2013-2-5,74,63,55,67,47,41,81,58,36,29.91,29.83,6,0,6,0.35
2013-2-6,75,64,58,65,47,34,82,58,23,30.03,29.91,5,1,5,0.00
2013-2-7,87,70,58,70,47,26,83,51,13,29.91,29.65,15,2,15,3.15
2013-2-8,80,64,53,68,43,32,79,49,20,30.03,29.83,10,1,10,0.00
2013-2-9,71,60,50,45,35,27,58,40,22,30.15,30.03,9,2,9,0.00
2013-2-10,76,69,54,68,58,41,77,68,56,30.03,29.88,11,3,11,0.00
2013-2-11,85,72,65,77,61,45,84,68,30,29.97,29.88,11,3,11,0.63
2013-2-12,79,71,63,73,62,52,82,73,66,29.91,29.65,13,2,13,0.20
2013-2-13,78,70,54,71,62,40,80,75,52,29.94,29.65,13,2,13,0.16
2013-2-14,70,54,44,47,32,17,70,47,17,30.03,29.91,7,0,7,0.00
2013-2-15,78,57,39,56,28,19,73,39,13,30.03,29.91,8,1,8,0.00
2013-2-16,66,55,42,35,18,5,46,26,15,30.18,29.94,18,4,18,0.00
2013-2-17,64,46,32,17,10,1,41,23,16,30.27,30.15,8,1,8,0.00
2013-2-18,71,57,37,48,26,16,64,33,17,30.18,29.94,13,3,13,0.00
2013-2-19,77,65,44,62,34,5,79,38,13,30.09,29.88,11,3,11,0.55
2013-2-20,65,49,39,19,12,6,41,23,15,30.15,29.97,10,1,10,0.00
2013-2-21,70,59,38,62,36,18,77,45,22,29.97,29.80,13,2,13,0.00
2013-2-22,76,72,69,70,66,62,83,81,76,29.85,29.74,10,1,10,1.93
2013-2-23,76,69,65,71,64,60,84,84,83,29.83,29.65,8,2,8,0.20
2013-2-24,79,68,58,68,47,31,83,55,20,29.85,29.71,10,1,10,1.81
2013-2-25,72,68,65,66,59,44,83,74,39,29.77,29.41,13,3,13,3.82
2013-2-26,72,62,56,66,30,19,83,34,17,29.80,29.41,15,5,15,0.08
2013-2-27,66,54,47,32,25,16,48,34,15,29.85,29.80,11,1,11,0.00
2013-2-28,67,55,46,37,21,10,60,31,15,29.94,29.85,9,3,9,0.00
2013-3-1,59,47,42,17,14,10,35,27,17,30.00,29.88,9,2,9,0.00
2013-3-2,54,38,33,18,10,-100,43,35,18,30.06,29.97,12,-18,12,0.00
2013-3-3,-200,0,200,-100,-100,-100,0,0,100,0.00,40.00,4,4,4,0.00
2013-3-4,64,54,59,27,9,-100,29,21,18,30.00,29.94,10,-23,10,0.00
2013-3-11,58,49,46,51,32,-100,79,59,52,29.85,29.74,11,-52,11,1.00
2013-3-12,72,53,41,35,23,11,69,36,14,30.06,29.83,13,3,14,0.00
2013-3-13,72,54,38,38,19,4,61,29,14,30.21,30.06,15,2,15,0.00
2013-3-14,71,52,39,20,12,4,31,21,14,30.30,30.15,13,2,13,0.00
2013-3-15,71,54,36,47,22,12,64,33,14,30.21,30.03,13,2,13,0.00
2013-3-16,76,61,43,56,33,24,71,39,15,30.03,29.88,15,2,15,0.00
2013-3-17,74,62,51,59,46,35,78,59,26,29.91,29.80,8,1,8,0.00
2013-3-18,82,70,64,65,57,45,81,64,30,29.83,29.68,10,2,10,0.00
2013-3-19,84,69,57,63,42,26,79,45,14,29.91,29.77,13,2,13,0.00
2013-3-20,72,59,41,41,18,9,54,21,14,29.97,29.83,15,2,15,0.00
2013-3-21,73,54,40,24,16,10,39,23,14,29.94,29.80,11,2,11,0.00
2013-3-22,70,58,46,36,28,18,48,33,17,29.83,29.74,17,3,17,0.00
2013-3-23,72,66,62,64,49,25,80,56,23,29.77,29.50,9,2,9,0.00
2013-3-24,85,73,52,71,43,10,84,43,13,29.80,29.44,20,5,20,0.00
2013-3-25,67,52,40,18,10,3,23,18,15,30.09,29.80,17,5,17,0.00
2013-3-26,62,47,36,15,7,1,24,20,16,30.24,30.09,13,3,13,0.00
2013-3-27,65,44,30,17,8,-1,39,23,15,30.30,30.15,12,1,12,0.00
2013-3-28,72,48,32,42,18,6,64,33,14,30.24,30.12,10,1,10,0.00
2013-3-29,72,53,37,46,24,14,64,36,14,30.21,30.09,10,1,10,0.00
2013-3-30,76,62,46,61,34,24,75,41,15,30.09,29.94,12,1,12,0.00
2013-3-31,80,68,55,65,44,30,79,47,20,29.94,29.80,12,2,12,0.00
2013-4-1,83,68,54,62,40,20,79,42,14,29.91,29.80,11,2,11,0.00
2013-4-2,82,63,47,58,34,22,73,39,14,30.00,29.88,10,1,10,0.00
2013-4-3,65,61,57,59,51,40,83,70,46,29.94,29.68,17,2,17,1.16
2013-4-4,77,66,59,65,49,34,81,58,22,29.83,29.74,11,2,11,0.00
2013-4-5,72,60,50,44,34,20,65,41,16,29.97,29.80,14,4,15,0.00
2013-4-6,77,61,45,55,30,21,71,37,15,30.06,29.97,11,1,11,0.00
2013-4-7,77,58,49,59,40,33,73,52,29,30.03,29.94,8,1,8,0.00
2013-4-11,74,72,68,67,66,62,80,79,78,29.65,29.53,10,1,10,0.00
2013-4-12,86,70,57,62,40,19,82,43,12,29.85,29.65,13,3,13,0.00
2013-4-13,86,67,49,55,32,23,67,32,13,29.94,29.77,11,1,11,0.00
2013-4-14,69,65,60,63,54,36,81,67,41,29.83,29.59,17,1,17,0.74
2013-4-15,81,73,67,69,59,48,82,64,32,29.91,29.71,8,1,8,0.00
2013-4-16,88,77,68,71,52,38,79,46,19,30.00,29.91,9,1,9,0.00
2013-4-17,85,75,68,68,54,36,79,52,19,30.03,29.88,10,1,10,0.00
2013-4-18,85,76,68,69,61,52,79,62,33,29.88,29.74,13,2,13,0.00
2013-4-19,78,63,52,71,51,35,82,66,42,30.03,29.71,17,3,17,0.13
2013-4-20,75,59,46,45,28,12,72,38,13,30.12,30.00,14,3,14,0.00
2013-4-21,78,60,42,49,28,20,65,34,15,30.09,30.00,10,1,10,0.00
2013-4-22,78,65,52,50,39,33,57,40,23,30.03,29.94,11,1,11,0.00
2013-4-23,77,68,56,55,45,36,69,47,25,30.03,29.94,10,2,11,0.00
2013-4-24,79,67,56,68,54,43,80,64,30,30.03,29.91,9,1,9,0.12
2013-4-25,85,69,59,61,42,21,83,47,13,30.15,30.00,13,2,13,0.00
2013-4-26,83,66,50,38,26,19,46,24,14,30.18,30.09,11,1,11,0.00
2013-4-27,80,68,54,63,49,38,73,52,30,30.09,29.94,9,1,11,0.00
2013-4-28,82,74,68,72,52,36,81,53,20,29.97,29.85,10,1,10,0.00
2013-4-29,85,72,64,60,48,36,68,46,19,29.88,29.77,10,1,10,0.00
2013-4-30,82,72,63,69,52,42,80,52,27,29.85,29.80,10,1,10,0.00
2013-5-1,75,72,70,64,58,49,76,62,42,29.83,29.74,17,4,17,0.09
2013-5-2,80,71,65,66,54,45,81,58,31,29.88,29.77,15,2,15,1.08
2013-5-3,76,69,55,59,54,44,77,60,34,29.83,29.71,15,2,15,0.17
2013-5-4,74,59,48,48,28,12,80,38,13,29.83,29.74,17,3,17,0.21
2013-5-5,76,60,44,56,26,12,68,31,14,29.88,29.71,20,3,20,0.00
2013-5-6,73,60,44,41,26,20,59,29,16,29.91,29.80,15,3,15,0.00
2013-5-7,78,64,51,52,35,24,68,38,15,29.91,29.83,12,2,12,0.00
2013-5-8,81,67,53,68,43,31,80,46,17,30.00,29.88,11,1,11,0.00
2013-5-9,82,69,55,67,42,27,79,45,14,30.03,29.94,10,1,10,0.00
2013-5-10,80,70,62,65,51,35,76,55,21,30.03,29.83,13,1,13,0.00
2013-5-11,78,68,60,68,54,44,81,64,33,29.94,29.83,6,0,8,0.21
2013-5-12,85,73,63,65,41,23,81,40,13,30.00,29.85,11,2,11,0.00
2013-5-13,83,66,51,29,23,14,36,20,14,30.15,30.00,12,2,12,0.00
2013-5-14,79,65,50,54,30,22,66,32,15,30.18,30.06,10,1,10,0.00
2013-5-15,84,68,52,62,35,21,72,37,14,30.12,29.91,10,1,10,0.00
2013-5-16,82,70,62,62,48,36,72,49,20,29.97,29.88,10,1,10,0.00
2013-5-17,83,74,65,68,54,46,79,54,29,29.97,29.88,10,1,10,0.00
2013-5-18,87,77,70,69,55,43,76,50,23,29.97,29.91,11,2,11,0.00
2013-5-19,87,76,67,73,55,41,80,52,22,29.94,29.88,8,1,8,0.00
2013-5-20,89,79,70,76,54,41,81,48,19,29.94,29.85,10,1,10,0.00
2013-5-21,90,78,67,74,52,35,79,47,15,29.88,29.80,10,1,10,0.00
2013-5-22,88,77,67,77,53,36,81,49,18,29.88,29.77,14,1,14,0.00
2013-5-23,95,80,68,71,50,30,77,42,11,29.91,29.83,10,2,10,0.00
2013-5-24,95,81,65,69,44,25,75,35,11,30.03,29.88,11,2,11,0.00
2013-5-25,89,72,56,43,31,25,52,24,13,30.12,30.03,8,1,8,0.00
2013-5-26,87,73,59,66,46,30,75,45,13,30.09,30.00,12,1,12,0.00
2013-5-27,88,75,65,69,48,33,79,45,16,30.06,29.94,10,1,10,0.00
2013-5-28,87,75,62,68,52,44,76,49,24,30.00,29.94,10,1,11,0.00
2013-5-29,88,80,70,70,57,45,76,49,24,29.97,29.88,15,2,15,0.00
2013-5-30,89,82,77,66,56,44,68,44,22,29.97,29.88,15,3,15,0.00
2013-5-31,90,82,77,66,58,44,66,47,22,29.94,29.88,10,2,10,0.00
2013-6-1,89,82,77,71,64,55,73,57,33,29.91,29.83,9,1,9,0.00
2013-6-2,94,83,73,79,60,43,80,51,18,29.85,29.74,12,1,12,0.00
2013-6-3,96,83,76,78,62,44,77,53,18,29.83,29.74,8,1,8,0.08
2013-6-4,94,85,75,81,60,45,78,49,19,29.83,29.77,10,1,10,0.00
2013-6-5,92,84,76,77,59,44,75,46,19,29.83,29.74,10,1,11,0.04
2013-6-6,97,82,70,67,52,36,71,41,13,29.80,29.59,10,2,10,0.00
2013-6-7,89,80,73,68,56,40,74,48,19,29.80,29.62,12,2,12,0.00
2013-6-8,92,83,72,78,57,41,78,47,19,29.91,29.77,8,1,8,0.00
2013-6-9,80,77,73,74,69,61,83,78,58,29.97,29.83,15,1,15,5.11
2013-6-10,86,81,77,79,71,60,81,72,46,29.97,29.85,11,0,11,0.42
2013-6-11,98,85,77,86,63,43,82,54,16,29.97,29.88,10,1,10,0.00
2013-6-12,98,86,76,82,58,41,80,47,16,29.97,29.88,12,2,12,0.00
2013-6-13,97,85,76,75,55,31,74,41,12,29.91,29.77,15,2,15,0.00
2013-6-14,96,85,73,69,53,31,67,39,12,29.83,29.71,11,2,11,0.00
2013-6-15,91,79,67,65,54,48,65,44,27,29.91,29.80,8,1,8,0.00
2013-6-16,90,81,72,76,61,48,78,55,25,29.94,29.85,9,1,9,0.00
2013-6-17,91,82,75,76,59,45,77,49,22,29.91,29.85,13,2,13,0.00
2013-6-18,93,83,73,72,54,36,69,41,14,29.88,29.80,14,3,14,0.58
2013-6-19,93,82,72,80,58,39,81,51,18,29.91,29.83,10,1,10,1.24
2013-6-20,95,82,73,76,56,41,78,47,17,29.97,29.88,8,1,8,0.00
2013-6-21,92,81,72,75,57,42,78,49,20,30.00,29.91,8,1,8,0.00
2013-6-22,92,82,73,75,56,40,78,47,17,30.00,29.88,9,1,9,0.00
2013-6-23,90,81,74,79,61,48,79,55,25,30.00,29.91,10,1,10,0.33
2013-6-24,95,84,77,82,60,42,80,51,18,30.06,29.97,7,0,8,0.33
2013-6-25,94,83,75,81,62,45,79,54,20,31.01,29.97,8,0,8,0.17
2013-6-26,95,84,75,80,60,43,78,49,18,31.01,31.01,8,1,8,0.00
2013-6-27,99,87,76,80,59,38,77,45,13,31.01,31.01,11,2,11,0.00
2013-6-28,98,89,83,77,60,43,70,43,16,31.01,17.72,13,3,13,0.00
2013-6-29,92,82,76,71,59,47,67,48,25,17.72,17.72,10,1,10,0.04
2013-6-30,94,80,72,75,60,41,76,53,17,17.72,17.72,14,0,15,0.17
2013-7-1,95,83,73,74,53,31,79,45,11,17.72,17.72,13,2,13,0.00
2013-7-2,92,80,69,75,52,39,77,43,17,17.72,17.72,8,1,9,0.00
2013-7-3,88,78,72,76,63,50,76,60,29,17.72,17.72,9,1,9,0.50
2013-7-4,91,82,76,84,72,64,83,74,56,17.72,17.72,12,2,12,4.70
2013-7-5,86,81,77,79,74,69,82,78,71,17.72,17.72,10,1,13,2.37
2013-7-6,90,85,81,84,79,74,82,81,80,17.72,17.72,9,0,10,3.07
2013-7-7,94,87,83,88,79,74,82,77,67,17.72,17.72,8,0,8,0.54
2013-7-8,95,88,83,88,79,72,81,73,52,17.72,17.72,4,0,4,0.00
2013-7-9,98,88,81,91,75,66,81,65,42,17.72,17.72,8,1,8,0.00
2013-7-10,99,86,80,89,75,67,80,70,44,17.72,17.72,11,1,11,0.70
2013-7-11,92,86,82,85,79,74,82,79,77,17.72,17.72,8,0,8,0.67
2013-7-12,98,90,82,90,78,71,81,70,51,17.72,40.00,10,0,12,0.00
2013-7-13,96,83,77,85,74,67,79,73,59,0.00,40.00,17,0,17,0.33
2013-7-14,98,88,80,88,77,71,81,71,49,0.00,40.00,9,1,9,0.00
2013-7-15,98,88,81,90,78,71,81,72,54,0.00,40.00,9,1,9,0.21
2013-7-16,98,90,83,86,79,72,80,71,55,0.00,40.00,14,2,14,0.04
2013-7-17,102,93,82,88,68,47,78,51,16,0.00,40.00,11,1,11,0.00
2013-7-18,99,89,79,79,58,42,76,42,16,0.00,40.00,9,1,9,0.00
2013-7-19,92,82,76,81,64,49,79,56,24,0.00,40.00,10,1,10,0.00
2013-7-20,92,84,78,85,68,55,82,61,31,0.00,40.00,11,1,11,0.70
2013-7-21,93,84,78,74,64,45,70,55,20,0.00,40.00,15,1,15,0.04
2013-7-22,91,84,75,82,70,51,78,65,31,0.00,40.00,18,2,18,1.12
2013-7-23,96,51,83,83,-10,-100,66,23,29,29.88,29.83,15,3,15,0.79
2013-7-24,98,69,78,86,30,-100,81,41,25,29.85,29.74,12,2,12,0.50
2013-7-25,100,88,78,88,74,63,81,64,38,29.88,29.74,10,1,10,0.08
2013-7-26,98,88,81,86,67,46,79,55,18,29.94,29.85,10,1,10,0.00
2013-7-27,91,83,76,83,65,49,79,58,27,29.85,29.80,10,0,10,0.08
2013-7-28,96,86,78,89,65,48,82,55,21,29.88,29.77,12,1,12,0.87
2013-7-29,96,87,80,85,64,44,79,51,19,30.00,29.85,8,0,8,0.00
2013-7-30,96,87,79,86,61,43,80,48,17,30.03,29.94,9,1,9,0.00
2013-7-31,91,84,79,82,70,56,78,65,41,29.97,29.88,11,0,11,0.42
2013-8-1,92,84,80,84,74,59,80,72,39,29.88,29.80,10,0,10,0.83
2013-8-2,99,88,79,92,71,58,82,60,28,29.91,29.80,8,0,8,0.00
2013-8-3,102,90,83,92,69,54,81,55,26,29.94,29.85,10,1,10,0.00
2013-8-4,103,89,78,86,60,39,79,45,12,29.94,29.83,8,1,8,0.00
2013-8-5,99,85,77,78,60,42,76,47,16,29.91,29.83,8,1,8,0.00
2013-8-6,100,84,77,79,63,44,78,56,15,29.91,29.80,8,1,8,0.00
2013-8-7,98,86,78,86,63,42,81,53,16,29.88,29.77,6,0,6,0.00
2013-8-8,98,87,80,84,62,44,80,49,17,29.85,29.80,8,1,8,0.00
2013-8-9,94,86,78,71,60,47,70,45,21,29.94,29.83,10,1,10,0.00
2013-8-10,95,84,76,81,57,42,79,46,16,29.97,29.88,10,1,10,0.00
2013-8-11,96,85,76,82,59,43,78,48,17,30.03,29.94,9,1,9,0.00
2013-8-12,94,83,78,84,69,56,79,63,33,30.00,29.91,9,0,9,0.00
2013-8-13,98,82,78,91,69,-100,82,71,46,29.94,29.83,14,1,14,0.00
2013-8-14,96,87,80,87,74,63,82,68,35,29.85,29.77,11,2,11,0.00
2013-8-15,96,86,82,89,70,58,81,61,34,29.85,29.77,10,1,10,0.00
2013-8-16,90,85,82,84,75,69,81,73,60,29.88,29.80,6,0,6,0.00
2013-8-17,86,84,82,80,76,74,82,79,72,29.88,29.80,8,0,8,0.00
2013-8-18,92,87,83,86,81,76,82,81,80,29.94,29.85,11,1,11,0.00
2013-8-19,104,94,86,96,83,73,82,73,55,29.94,29.85,6,0,6,0.00
2013-8-20,103,90,86,93,79,-100,81,73,64,29.97,29.85,8,0,8,0.00
2013-8-21,105,93,86,95,82,74,81,71,54,30.00,29.94,8,1,10,0.00
2013-8-22,103,93,84,94,81,73,80,70,57,30.00,29.85,10,1,10,0.00
2013-8-23,93,89,86,86,81,76,80,77,71,29.91,29.83,8,0,8,0.00
2013-8-24,95,90,86,88,83,78,81,80,78,30.03,29.88,7,0,7,0.25
2013-8-25,99,91,86,92,79,63,81,70,35,30.09,29.97,10,1,10,0.00
2013-8-26,100,89,77,76,56,33,68,39,10,30.09,29.97,12,1,12,0.00
2013-8-27,99,84,71,77,50,31,75,39,10,30.00,29.91,8,1,8,0.00
2013-8-28,96,81,70,76,52,36,77,42,14,29.94,29.88,6,0,6,0.00
2013-8-29,97,82,72,74,50,37,77,40,13,29.94,29.85,10,1,10,0.00
2013-8-30,96,82,72,68,51,36,69,40,14,29.91,29.80,10,1,10,0.00
2013-8-31,92,80,73,67,56,45,67,46,20,29.85,29.74,10,1,10,0.00
2013-9-1,95,81,73,80,64,43,81,62,17,29.83,29.74,11,1,11,0.33
2013-9-2,97,84,76,88,70,41,82,67,17,29.88,29.77,14,1,14,0.58
2013-9-3,98,84,78,90,75,70,83,76,57,29.85,29.77,8,1,8,0.04
2013-9-4,99,87,78,93,77,71,83,73,57,29.97,29.83,8,0,8,0.00
2013-9-5,101,89,80,93,77,68,82,69,47,30.00,29.91,8,0,8,0.00
2013-9-6,104,90,81,89,75,64,81,64,40,29.97,29.85,6,0,6,0.00
2013-9-7,102,88,78,90,63,39,81,52,12,29.94,29.85,7,0,7,0.00
2013-9-8,100,86,75,86,55,32,81,44,11,29.88,29.83,8,0,8,0.00
2013-9-9,97,83,72,80,52,32,80,42,11,29.91,29.85,9,1,9,0.00
2013-9-10,93,82,73,70,52,36,73,42,14,30.00,29.91,9,1,9,0.00
2013-9-11,94,80,70,75,50,36,79,43,14,30.00,29.91,10,1,10,0.00
2013-9-12,94,80,70,76,50,34,80,43,14,29.91,29.80,8,1,8,0.00
2013-9-13,97,81,69,76,52,37,80,44,13,29.83,29.68,8,1,8,0.00
2013-9-14,90,79,70,60,48,36,62,37,17,29.88,29.71,8,1,9,0.00
2013-9-15,94,79,65,64,48,37,68,39,14,29.94,29.85,9,0,9,0.00
2013-9-16,92,79,71,77,59,43,81,55,19,29.97,29.88,15,1,15,0.54
2013-9-17,96,82,73,86,63,44,83,58,17,29.94,29.85,8,1,8,0.00
2013-9-18,88,81,76,69,59,50,71,50,28,29.97,29.88,13,2,13,0.00
2013-9-19,92,82,75,67,55,39,67,44,18,29.97,29.88,10,2,10,0.00
2013-9-20,94,82,74,79,57,41,79,47,17,29.91,29.74,8,1,8,0.00
2013-9-21,88,81,77,81,70,57,81,71,43,29.74,29.59,11,0,11,1.08
2013-9-22,88,81,76,82,75,70,83,82,80,29.68,29.62,8,1,8,0.58
2013-9-23,99,88,79,93,79,72,82,76,64,29.77,29.65,6,0,6,0.00
2013-9-24,96,88,83,90,81,77,82,81,77,29.77,29.65,11,1,11,1.12
2013-9-25,103,90,78,96,80,68,82,74,54,29.71,29.62,7,1,7,0.20
2013-9-26,101,86,76,92,76,68,82,71,51,29.83,29.68,6,0,8,0.00
2013-9-27,98,84,72,84,60,33,82,53,11,29.91,29.83,11,1,11,0.00
2013-9-28,96,80,69,70,50,31,75,42,14,29.97,29.88,10,1,10,0.00
2013-9-29,91,77,64,66,50,38,73,45,17,29.94,29.83,8,0,8,0.00
2013-9-30,90,77,71,70,56,37,78,54,18,29.88,29.80,6,0,6,0.00
2013-10-1,92,80,72,74,55,39,80,49,17,29.94,29.85,10,1,10,0.00
2013-10-2,88,78,73,81,66,55,81,69,42,29.94,29.88,11,1,11,0.54
2013-10-3,90,81,74,81,66,53,83,61,30,29.94,29.85,11,1,11,0.37
2013-10-4,94,84,78,84,63,42,83,55,17,29.94,29.88,10,1,10,0.08
2013-10-5,94,84,77,84,61,44,83,51,20,29.91,29.83,10,1,10,0.00
2013-10-6,85,79,76,75,67,54,80,66,39,29.83,29.68,9,0,13,1.41
2013-10-7,86,74,63,72,41,24,81,38,13,29.85,29.71,17,3,17,0.00
2013-10-8,88,71,58,52,39,28,66,36,13,29.88,29.83,9,1,9,0.00
2013-10-9,85,73,66,59,51,39,71,50,20,29.97,29.85,9,1,9,0.00
2013-10-10,88,73,62,71,49,37,81,49,18,30.00,29.88,7,0,7,0.00
2013-10-11,91,74,63,75,48,32,82,47,15,29.94,29.85,7,0,7,0.00
2013-10-12,92,74,63,75,49,34,82,47,14,29.97,29.85,8,1,8,0.00
2013-10-13,90,75,65,74,46,28,81,43,13,30.03,29.94,10,1,10,0.00
2013-10-14,88,73,62,66,46,32,78,44,15,30.00,29.88,9,0,9,0.00
2013-10-15,84,71,61,63,46,34,77,45,18,29.94,29.85,6,0,7,0.00
2013-10-16,86,72,61,72,50,38,82,52,20,29.91,29.83,8,0,8,0.00
2013-10-17,86,75,68,77,59,48,82,59,30,29.85,29.77,9,1,11,0.04
2013-10-18,87,73,67,60,50,36,68,48,19,29.88,29.80,9,1,9,0.04
2013-10-19,74,68,65,61,51,40,73,54,32,29.88,29.77,12,1,12,0.00
2013-10-20,83,68,59,60,42,27,79,44,16,29.91,29.85,10,1,10,0.00
2013-10-21,74,66,61,52,45,-100,61,47,34,29.94,29.85,6,0,6,0.00
2013-10-22,80,68,63,64,52,43,78,59,30,29.85,29.77,6,0,6,0.08
2013-10-23,80,66,55,52,35,18,69,37,15,30.00,29.83,10,2,10,0.00
2013-10-24,80,60,44,45,28,20,61,32,15,30.12,29.97,8,1,8,0.00
2013-10-25,72,58,46,46,27,11,70,35,16,30.24,30.06,13,3,13,0.00
2013-10-26,75,53,35,32,20,12,53,31,15,30.21,30.06,7,0,7,0.00
2013-10-27,76,58,41,57,32,25,76,43,18,30.06,29.97,8,0,8,0.00
2013-10-28,80,63,51,62,39,30,77,47,17,30.09,29.97,10,1,10,0.00
2013-10-29,79,64,52,65,41,33,80,49,20,30.15,30.06,10,1,10,0.00
2013-10-30,80,68,56,71,52,44,82,59,33,31.01,30.00,10,1,10,0.00
2013-10-31,84,77,71,64,55,48,64,47,30,31.01,17.72,10,2,10,0.00
2013-11-1,79,74,65,71,66,59,83,77,64,17.72,17.72,10,1,10,0.75
2013-11-2,84,68,57,74,42,22,83,49,14,17.72,17.72,11,2,11,0.00
2013-11-3,75,59,47,31,25,15,47,29,15,17.72,17.72,10,2,10,0.00
2013-11-4,78,63,47,41,30,25,57,32,15,17.72,17.72,12,2,12,0.00
2013-11-5,80,66,55,35,30,27,40,27,17,17.72,17.72,11,2,14,0.00
2013-11-6,75,66,60,53,43,28,67,44,28,17.72,17.72,11,1,11,0.00
2013-11-7,72,61,48,66,43,22,83,54,24,17.72,40.00,14,3,14,0.04
2013-11-8,71,52,40,24,18,11,43,27,17,17.72,17.72,15,3,15,0.00
2013-11-9,78,58,39,38,31,19,58,39,18,17.72,40.00,9,1,9,0.00
2013-11-10,80,62,50,66,40,26,79,50,17,0.00,40.00,11,1,11,0.00
2013-11-11,80,58,44,60,34,-100,76,45,15,30.06,30.03,8,0,8,0.00
2013-11-12,75,56,40,50,27,5,73,39,16,30.30,30.03,17,3,17,0.00
2013-11-13,59,41,29,17,6,-2,34,23,19,30.36,30.27,17,4,17,0.00
2013-11-14,65,48,28,31,18,4,43,30,20,30.30,30.06,11,1,11,0.00
2013-11-15,69,62,54,61,48,22,78,64,27,30.06,29.88,8,2,8,0.12
2013-11-16,73,68,63,64,56,49,81,68,44,30.00,29.88,10,2,10,0.00
2013-11-17,83,77,71,77,65,51,84,69,34,29.88,29.80,14,2,14,0.04
2013-11-18,80,75,61,75,65,22,83,74,23,29.94,29.83,10,1,10,0.95
2013-11-19,74,60,49,25,21,18,32,23,16,30.00,29.88,13,2,13,0.00
2013-11-20,78,60,44,43,32,19,56,37,18,30.03,29.91,9,1,9,0.00
2013-11-21,71,65,58,52,43,38,57,46,35,30.12,30.03,9,2,9,0.00
2013-11-22,76,69,65,61,53,48,72,57,38,30.12,30.00,10,1,10,0.00
2013-11-23,73,66,54,66,51,22,81,61,28,30.12,30.03,13,2,13,0.00
2013-11-24,63,51,43,22,14,8,28,22,18,30.21,30.12,19,4,19,0.00
2013-11-25,70,55,44,64,29,9,83,39,22,30.18,29.77,14,4,14,0.17
2013-11-26,73,63,52,68,58,47,84,84,83,29.80,29.56,13,4,15,1.74
2013-11-27,56,34,40,47,-10,-100,84,34,20,30.24,29.77,17,4,17,0.08
2013-11-28,58,30,28,16,-23,-100,41,19,19,30.36,30.24,10,2,10,0.00
2013-11-29,58,15,27,31,-50,-100,55,19,19,30.42,30.27,12,1,12,0.00
2013-11-30,-200,0,200,-100,-100,-100,0,0,100,30.33,30.15,7,0,7,0.00
2013-12-1,-200,0,200,-100,-100,-100,0,0,100,30.15,29.91,8,0,8,0.00
2013-12-2,-200,0,200,-100,-100,-100,0,0,100,29.91,29.68,8,0,8,0.00
2013-12-3,-200,0,200,-100,-100,-100,0,0,100,29.74,29.68,15,2,15,0.00
2013-12-4,-200,0,200,-100,-100,-100,0,0,100,29.85,29.74,11,1,13,0.37
2013-12-5,-200,0,200,-100,-100,-100,0,0,100,29.94,29.85,10,2,10,0.00
2013-12-6,-200,0,200,-100,-100,-100,0,0,100,30.00,29.88,15,3,15,0.04
2013-12-7,-200,0,200,-100,-100,-100,0,0,100,30.15,30.00,15,3,15,0.00
2013-12-8,-200,0,200,-100,-100,-100,0,0,100,30.09,29.94,8,1,9,0.00
2013-12-9,-200,0,200,-100,-100,-100,0,0,100,30.00,29.91,7,0,8,0.08
2013-12-10,-200,0,200,-100,-100,-100,0,0,100,30.21,29.91,17,3,17,0.17
2013-12-11,-200,0,200,-100,-100,-100,0,0,100,30.27,30.18,8,1,8,0.00
2013-12-12,-200,0,200,-100,-100,-100,0,0,100,30.36,30.24,14,2,14,0.00
2013-12-13,-200,0,200,-100,-100,-100,0,0,100,30.24,29.91,11,1,11,0.00
2013-12-14,-200,0,200,-100,-100,-100,0,0,100,29.91,29.71,14,2,14,0.00
2013-12-15,-200,0,200,-100,-100,-100,0,0,100,30.15,29.80,15,4,15,0.00
2013-12-16,-200,0,200,-100,-100,-100,0,0,100,31.01,30.12,8,1,8,0.00
2013-12-17,-200,0,200,-100,-100,-100,0,0,100,31.01,17.72,8,1,8,0.00
2013-12-18,-200,0,200,-100,-100,-100,0,0,100,17.72,17.72,10,1,10,0.00
2013-12-19,-200,0,200,-100,-100,-100,0,0,100,17.72,17.72,10,1,10,0.00
2013-12-20,-200,0,200,-100,-100,-100,0,0,100,17.72,17.72,9,1,9,0.00
2013-12-21,-200,0,200,-100,-100,-100,0,0,100,17.72,17.72,13,3,13,0.00
2013-12-22,-200,0,200,-100,-100,-100,0,0,100,17.72,17.72,14,4,15,0.17
2013-12-23,-200,0,200,-100,-100,-100,0,0,100,17.72,17.72,16,3,16,0.17
2013-12-24,-200,0,200,-100,-100,-100,0,0,100,17.72,17.72,14,3,14,0.00
2013-12-25,-200,0,200,-100,-100,-100,0,0,100,17.72,17.72,9,1,9,0.00
2013-12-26,-200,0,200,-100,-100,-100,0,0,100,17.72,40.00,13,2,14,0.00
2013-12-27,-200,0,200,-100,-100,-100,0,0,100,0.00,40.00,13,2,13,0.00
2013-12-28,-200,0,200,-100,-100,-100,0,0,100,30.00,29.77,13,3,13,1.57
2013-12-29,-200,0,200,-100,-100,-100,0,0,100,30.00,29.80,10,1,10,0.00
2013-12-30,-200,0,200,-100,-100,-100,0,0,100,30.15,29.97,5,0,5,0.00
2013-12-31,-200,0,200,-100,-100,-100,0,0,100,30.30,30.15,10,2,10,0.00
2014-1-1,-200,0,200,-100,-100,-100,0,0,100,30.21,29.88,7,1,7,0.08
2014-1-2,-200,0,200,-100,-100,-100,0,0,100,30.15,29.80,17,3,17,0.33